sensor_id;sensor_type;location;lat;lon;timestamp;pressure;altitude;pressure_sealevel;temperature;humidity
56400;BME280;42298;53.638;9.876;2023-05-20T00:00:52;102587.03;;;14.17;45.22
56400;BME280;42298;53.638;9.876;2023-05-20T00:03:18;102585.66;;;14.15;45.45
56400;BME280;42298;53.638;9.876;2023-05-20T00:05:48;102581.28;;;14.09;45.40
56400;BME280;42298;53.638;9.876;2023-05-20T00:08:14;102584.00;;;14.14;45.45
56400;BME280;42298;53.638;9.876;2023-05-20T00:10:39;102571.06;;;14.04;45.66
56400;BME280;42298;53.638;9.876;2023-05-20T00:13:05;102586.28;;;14.07;44.89
56400;BME280;42298;53.638;9.876;2023-05-20T00:15:31;102589.59;;;14.09;45.16
56400;BME280;42298;53.638;9.876;2023-05-20T00:17:59;102585.19;;;14.03;45.23
56400;BME280;42298;53.638;9.876;2023-05-20T00:20:25;102583.53;;;14.02;45.38
56400;BME280;42298;53.638;9.876;2023-05-20T00:22:51;102589.09;;;14.02;45.51
56400;BME280;42298;53.638;9.876;2023-05-20T00:25:16;102593.22;;;14.04;44.80
56400;BME280;42298;53.638;9.876;2023-05-20T00:27:41;102580.22;;;14.00;45.23
56400;BME280;42298;53.638;9.876;2023-05-20T00:30:09;102590.16;;;14.06;45.09
56400;BME280;42298;53.638;9.876;2023-05-20T00:32:34;102576.94;;;13.98;45.51
56400;BME280;42298;53.638;9.876;2023-05-20T00:35:02;102581.31;;;14.04;45.01
56400;BME280;42298;53.638;9.876;2023-05-20T00:37:28;102577.16;;;14.01;45.42
56400;BME280;42298;53.638;9.876;2023-05-20T00:39:53;102574.41;;;14.01;46.16
56400;BME280;42298;53.638;9.876;2023-05-20T00:44:45;102572.28;;;13.88;46.00
56400;BME280;42298;53.638;9.876;2023-05-20T00:47:14;102575.06;;;13.88;46.43
56400;BME280;42298;53.638;9.876;2023-05-20T00:49:40;102562.63;;;13.86;47.00
56400;BME280;42298;53.638;9.876;2023-05-20T00:52:06;102570.38;;;13.84;47.43
56400;BME280;42298;53.638;9.876;2023-05-20T00:54:32;102569.81;;;13.87;47.13
56400;BME280;42298;53.638;9.876;2023-05-20T00:56:57;102572.03;;;13.85;47.15
56400;BME280;42298;53.638;9.876;2023-05-20T00:59:25;102569.81;;;13.87;47.54
56400;BME280;42298;53.638;9.876;2023-05-20T01:01:51;102567.91;;;13.82;47.68
56400;BME280;42298;53.638;9.876;2023-05-20T01:04:16;102572.59;;;13.82;48.58
56400;BME280;42298;53.638;9.876;2023-05-20T01:06:42;102572.59;;;13.82;49.16
56400;BME280;42298;53.638;9.876;2023-05-20T01:09:07;102573.16;;;13.79;48.90
56400;BME280;42298;53.638;9.876;2023-05-20T01:11:49;102571.78;;;13.81;49.73
56400;BME280;42298;53.638;9.876;2023-05-20T01:14:18;102575.06;;;13.83;49.81
56400;BME280;42298;53.638;9.876;2023-05-20T01:16:47;102574.00;;;13.79;49.84
56400;BME280;42298;53.638;9.876;2023-05-20T01:19:41;102584.50;;;13.82;50.67
56400;BME280;42298;53.638;9.876;2023-05-20T01:22:11;102568.19;;;13.76;51.23
56400;BME280;42298;53.638;9.876;2023-05-20T01:24:46;102564.34;;;13.77;51.77
56400;BME280;42298;53.638;9.876;2023-05-20T01:27:18;102566.84;;;13.73;51.98
56400;BME280;42298;53.638;9.876;2023-05-20T01:29:45;102548.59;;;13.67;52.25
56400;BME280;42298;53.638;9.876;2023-05-20T01:32:18;102561.91;;;13.65;53.33
56400;BME280;42298;53.638;9.876;2023-05-20T01:34:49;102563.31;;;13.63;52.92
56400;BME280;42298;53.638;9.876;2023-05-20T01:37:16;102557.78;;;13.58;53.70
56400;BME280;42298;53.638;9.876;2023-05-20T01:39:43;102563.91;;;13.55;53.88
56400;BME280;42298;53.638;9.876;2023-05-20T01:42:12;102561.69;;;13.52;54.15
56400;BME280;42298;53.638;9.876;2023-05-20T01:44:39;102555.72;;;13.34;55.06
56400;BME280;42298;53.638;9.876;2023-05-20T01:47:05;102574.53;;;13.37;54.51
56400;BME280;42298;53.638;9.876;2023-05-20T01:49:30;102573.09;;;13.45;54.46
56400;BME280;42298;53.638;9.876;2023-05-20T01:51:56;102569.50;;;13.44;55.04
56400;BME280;42298;53.638;9.876;2023-05-20T01:54:21;102558.44;;;13.39;54.96
56400;BME280;42298;53.638;9.876;2023-05-20T01:56:47;102574.53;;;13.32;55.34
56400;BME280;42298;53.638;9.876;2023-05-20T01:59:12;102570.34;;;13.35;55.65
56400;BME280;42298;53.638;9.876;2023-05-20T02:01:37;102561.84;;;13.26;56.23
56400;BME280;42298;53.638;9.876;2023-05-20T02:04:03;102566.56;;;13.26;56.61
56400;BME280;42298;53.638;9.876;2023-05-20T02:06:28;102557.16;;;13.22;56.56
56400;BME280;42298;53.638;9.876;2023-05-20T02:08:54;102562.72;;;13.17;57.01
56400;BME280;42298;53.638;9.876;2023-05-20T02:11:21;102556.34;;;13.11;57.32
56400;BME280;42298;53.638;9.876;2023-05-20T02:13:49;102551.09;;;13.10;58.10
56400;BME280;42298;53.638;9.876;2023-05-20T02:16:15;102557.47;;;13.10;57.71
56400;BME280;42298;53.638;9.876;2023-05-20T02:18:40;102554.16;;;13.13;58.18
56400;BME280;42298;53.638;9.876;2023-05-20T02:21:06;102553.59;;;13.11;57.94
56400;BME280;42298;53.638;9.876;2023-05-20T02:23:32;102549.19;;;13.05;58.96
56400;BME280;42298;53.638;9.876;2023-05-20T02:25:58;102551.69;;;13.07;59.07
56400;BME280;42298;53.638;9.876;2023-05-20T02:28:23;102552.53;;;13.02;59.19
56400;BME280;42298;53.638;9.876;2023-05-20T02:30:48;102543.13;;;12.93;59.56
56400;BME280;42298;53.638;9.876;2023-05-20T02:33:17;102532.66;;;12.85;59.58
56400;BME280;42298;53.638;9.876;2023-05-20T02:35:43;102540.63;;;12.92;59.48
56400;BME280;42298;53.638;9.876;2023-05-20T02:38:08;102550.59;;;12.93;59.80
56400;BME280;42298;53.638;9.876;2023-05-20T02:40:34;102535.94;;;12.92;60.08
56400;BME280;42298;53.638;9.876;2023-05-20T02:43:00;102553.94;;;13.00;59.41
56400;BME280;42298;53.638;9.876;2023-05-20T02:45:28;102545.34;;;13.01;59.69
56400;BME280;42298;53.638;9.876;2023-05-20T02:47:53;102540.34;;;12.98;60.07
56400;BME280;42298;53.638;9.876;2023-05-20T02:50:19;102546.16;;;12.97;60.15
56400;BME280;42298;53.638;9.876;2023-05-20T02:52:44;102550.56;;;12.98;60.15
56400;BME280;42298;53.638;9.876;2023-05-20T02:55:12;102535.38;;;12.95;60.23
56400;BME280;42298;53.638;9.876;2023-05-20T02:57:37;102541.19;;;12.94;60.44
56400;BME280;42298;53.638;9.876;2023-05-20T03:00:04;102541.75;;;12.91;60.33
56400;BME280;42298;53.638;9.876;2023-05-20T03:02:31;102540.13;;;12.85;60.73
56400;BME280;42298;53.638;9.876;2023-05-20T03:04:56;102547.00;;;12.87;60.45
56400;BME280;42298;53.638;9.876;2023-05-20T03:07:22;102564.16;;;12.89;61.16
56400;BME280;42298;53.638;9.876;2023-05-20T03:09:47;102552.84;;;12.81;61.43
56400;BME280;42298;53.638;9.876;2023-05-20T03:12:13;102560.88;;;12.82;62.05
56400;BME280;42298;53.638;9.876;2023-05-20T03:14:38;102555.34;;;12.77;61.78
56400;BME280;42298;53.638;9.876;2023-05-20T03:17:04;102561.41;;;12.84;62.01
56400;BME280;42298;53.638;9.876;2023-05-20T03:19:30;102561.16;;;12.81;62.83
56400;BME280;42298;53.638;9.876;2023-05-20T03:21:57;102568.06;;;12.73;63.23
56400;BME280;42298;53.638;9.876;2023-05-20T03:24:25;102567.25;;;12.73;63.22
56400;BME280;42298;53.638;9.876;2023-05-20T03:26:52;102568.59;;;12.75;63.33
56400;BME280;42298;53.638;9.876;2023-05-20T03:29:17;102552.59;;;12.62;63.73
56400;BME280;42298;53.638;9.876;2023-05-20T03:31:44;102553.69;;;12.66;63.88
56400;BME280;42298;53.638;9.876;2023-05-20T03:34:09;102547.91;;;12.63;64.73
56400;BME280;42298;53.638;9.876;2023-05-20T03:36:35;102545.44;;;12.61;65.10
56400;BME280;42298;53.638;9.876;2023-05-20T03:39:03;102553.69;;;12.66;65.03
56400;BME280;42298;53.638;9.876;2023-05-20T03:41:28;102549.53;;;12.74;65.05
56400;BME280;42298;53.638;9.876;2023-05-20T03:43:54;102550.38;;;12.74;64.58
56400;BME280;42298;53.638;9.876;2023-05-20T03:46:19;102551.47;;;12.78;64.86
56400;BME280;42298;53.638;9.876;2023-05-20T03:48:45;102545.13;;;12.78;64.98
56400;BME280;42298;53.638;9.876;2023-05-20T03:51:12;102547.28;;;12.86;64.60
56400;BME280;42298;53.638;9.876;2023-05-20T03:53:37;102551.41;;;12.98;64.99
56400;BME280;42298;53.638;9.876;2023-05-20T03:56:03;102559.13;;;13.11;64.41
56400;BME280;42298;53.638;9.876;2023-05-20T03:58:29;102561.34;;;13.14;63.74
56400;BME280;42298;53.638;9.876;2023-05-20T04:00:56;102555.84;;;13.09;64.29
56400;BME280;42298;53.638;9.876;2023-05-20T04:03:22;102555.78;;;13.14;64.44
56400;BME280;42298;53.638;9.876;2023-05-20T04:05:49;102551.41;;;13.08;64.52
56400;BME280;42298;53.638;9.876;2023-05-20T04:08:15;102554.44;;;13.07;64.53
56400;BME280;42298;53.638;9.876;2023-05-20T04:10:40;102559.13;;;13.16;64.55
56400;BME280;42298;53.638;9.876;2023-05-20T04:13:07;102551.88;;;13.25;64.52
56400;BME280;42298;53.638;9.876;2023-05-20T04:15:34;102551.81;;;13.35;64.12
56400;BME280;42298;53.638;9.876;2023-05-20T04:18:00;102565.03;;;13.48;64.04
56400;BME280;42298;53.638;9.876;2023-05-20T04:20:26;102561.94;;;13.60;63.70
56400;BME280;42298;53.638;9.876;2023-05-20T04:22:52;102558.63;;;13.97;63.00
56400;BME280;42298;53.638;9.876;2023-05-20T04:25:19;102556.69;;;14.36;62.17
56400;BME280;42298;53.638;9.876;2023-05-20T04:27:46;102548.16;;;14.84;60.82
56400;BME280;42298;53.638;9.876;2023-05-20T04:30:14;102555.63;;;15.31;59.18
56400;BME280;42298;53.638;9.876;2023-05-20T04:32:42;102551.34;;;15.62;58.34
56400;BME280;42298;53.638;9.876;2023-05-20T04:35:07;102560.75;;;16.17;57.30
56400;BME280;42298;53.638;9.876;2023-05-20T04:37:36;102550.59;;;16.44;56.33
56400;BME280;42298;53.638;9.876;2023-05-20T04:40:01;102544.47;;;16.74;55.74
56400;BME280;42298;53.638;9.876;2023-05-20T04:42:31;102548.78;;;16.67;54.85
56400;BME280;42298;53.638;9.876;2023-05-20T04:44:56;102546.19;;;16.70;54.71
56400;BME280;42298;53.638;9.876;2023-05-20T04:47:22;102541.28;;;16.94;54.33
56400;BME280;42298;53.638;9.876;2023-05-20T04:49:48;102543.66;;;17.01;54.50
56400;BME280;42298;53.638;9.876;2023-05-20T04:52:14;102546.22;;;17.25;54.04
56400;BME280;42298;53.638;9.876;2023-05-20T04:54:39;102543.41;;;17.52;53.03
56400;BME280;42298;53.638;9.876;2023-05-20T04:57:05;102541.53;;;17.61;53.02
56400;BME280;42298;53.638;9.876;2023-05-20T04:59:31;102542.88;;;17.63;52.34
56400;BME280;42298;53.638;9.876;2023-05-20T05:01:56;102534.66;;;17.31;53.25
56400;BME280;42298;53.638;9.876;2023-05-20T05:04:22;102543.66;;;17.28;53.75
56400;BME280;42298;53.638;9.876;2023-05-20T05:06:48;102552.69;;;17.61;53.02
56400;BME280;42298;53.638;9.876;2023-05-20T05:09:14;102547.63;;;17.63;53.13
56400;BME280;42298;53.638;9.876;2023-05-20T05:11:41;102543.50;;;17.96;52.15
56400;BME280;42298;53.638;9.876;2023-05-20T05:14:07;102550.59;;;18.24;51.72
56400;BME280;42298;53.638;9.876;2023-05-20T05:16:32;102550.50;;;18.51;51.09
56400;BME280;42298;53.638;9.876;2023-05-20T05:18:57;102548.06;;;18.58;49.83
56400;BME280;42298;53.638;9.876;2023-05-20T05:21:23;102540.09;;;18.43;51.02
56400;BME280;42298;53.638;9.876;2023-05-20T05:23:48;102553.22;;;18.73;50.70
56400;BME280;42298;53.638;9.876;2023-05-20T05:26:13;102553.78;;;18.83;50.08
56400;BME280;42298;53.638;9.876;2023-05-20T05:28:40;102547.00;;;18.76;50.55
56400;BME280;42298;53.638;9.876;2023-05-20T05:31:07;102538.44;;;19.12;49.74
56400;BME280;42298;53.638;9.876;2023-05-20T05:33:32;102542.53;;;19.62;48.38
56400;BME280;42298;53.638;9.876;2023-05-20T05:35:57;102546.66;;;19.64;48.24
56400;BME280;42298;53.638;9.876;2023-05-20T05:38:23;102553.38;;;19.55;48.70
56400;BME280;42298;53.638;9.876;2023-05-20T05:40:50;102548.63;;;19.72;48.71
56400;BME280;42298;53.638;9.876;2023-05-20T05:43:15;102555.56;;;20.00;47.83
56400;BME280;42298;53.638;9.876;2023-05-20T05:45:41;102541.91;;;19.90;47.78
56400;BME280;42298;53.638;9.876;2023-05-20T05:48:07;102562.13;;;20.04;48.16
56400;BME280;42298;53.638;9.876;2023-05-20T05:50:32;102547.66;;;20.36;47.51
56400;BME280;42298;53.638;9.876;2023-05-20T05:52:58;102541.09;;;20.78;46.19
56400;BME280;42298;53.638;9.876;2023-05-20T05:55:23;102550.09;;;20.93;45.90
56400;BME280;42298;53.638;9.876;2023-05-20T05:57:49;102545.19;;;20.98;45.77
56400;BME280;42298;53.638;9.876;2023-05-20T06:00:15;102548.19;;;20.76;46.22
56400;BME280;42298;53.638;9.876;2023-05-20T06:02:42;102555.16;;;20.61;46.80
56400;BME280;42298;53.638;9.876;2023-05-20T06:05:08;102531.50;;;20.97;46.34
56400;BME280;42298;53.638;9.876;2023-05-20T06:07:33;102546.69;;;21.25;45.47
56400;BME280;42298;53.638;9.876;2023-05-20T06:09:59;102554.78;;;21.47;45.34
56400;BME280;42298;53.638;9.876;2023-05-20T06:12:24;102545.09;;;21.44;44.82
56400;BME280;42298;53.638;9.876;2023-05-20T06:14:49;102554.44;;;21.48;44.63
56400;BME280;42298;53.638;9.876;2023-05-20T06:17:15;102542.03;;;21.29;45.10
56400;BME280;42298;53.638;9.876;2023-05-20T06:19:40;102545.03;;;21.53;45.00
56400;BME280;42298;53.638;9.876;2023-05-20T06:22:05;102550.84;;;21.48;44.46
56400;BME280;42298;53.638;9.876;2023-05-20T06:24:32;102539.75;;;21.72;44.46
56400;BME280;42298;53.638;9.876;2023-05-20T06:26:58;102535.69;;;21.90;44.19
56400;BME280;42298;53.638;9.876;2023-05-20T06:29:24;102535.31;;;21.71;44.56
56400;BME280;42298;53.638;9.876;2023-05-20T06:31:49;102537.97;;;21.47;44.23
56400;BME280;42298;53.638;9.876;2023-05-20T06:34:14;102541.66;;;21.39;44.45
56400;BME280;42298;53.638;9.876;2023-05-20T06:36:40;102536.97;;;21.22;44.48
56400;BME280;42298;53.638;9.876;2023-05-20T06:39:05;102529.78;;;21.42;44.75
56400;BME280;42298;53.638;9.876;2023-05-20T06:41:37;102523.34;;;21.62;43.80
56400;BME280;42298;53.638;9.876;2023-05-20T06:44:02;102532.84;;;21.69;44.08
56400;BME280;42298;53.638;9.876;2023-05-20T06:46:28;102514.63;;;21.84;44.37
56400;BME280;42298;53.638;9.876;2023-05-20T06:48:54;102525.09;;;21.75;44.09
56400;BME280;42298;53.638;9.876;2023-05-20T06:51:19;102517.22;;;21.89;43.31
56400;BME280;42298;53.638;9.876;2023-05-20T06:53:44;102514.22;;;21.94;43.43
56400;BME280;42298;53.638;9.876;2023-05-20T06:56:10;102515.59;;;21.88;43.49
56400;BME280;42298;53.638;9.876;2023-05-20T06:58:38;102515.13;;;22.18;43.22
56400;BME280;42298;53.638;9.876;2023-05-20T07:01:05;102514.94;;;22.35;42.08
56400;BME280;42298;53.638;9.876;2023-05-20T07:03:30;102508.38;;;22.52;41.76
56400;BME280;42298;53.638;9.876;2023-05-20T07:05:56;102510.38;;;22.76;42.00
56400;BME280;42298;53.638;9.876;2023-05-20T07:08:21;102507.72;;;22.91;42.00
56400;BME280;42298;53.638;9.876;2023-05-20T07:10:47;102509.94;;;23.34;40.79
56400;BME280;42298;53.638;9.876;2023-05-20T07:13:12;102500.59;;;23.69;40.26
56400;BME280;42298;53.638;9.876;2023-05-20T07:15:38;102506.13;;;23.66;40.22
56400;BME280;42298;53.638;9.876;2023-05-20T07:18:03;102497.19;;;23.36;40.06
56400;BME280;42298;53.638;9.876;2023-05-20T07:20:29;102496.91;;;23.05;40.97
56400;BME280;42298;53.638;9.876;2023-05-20T07:22:56;102505.34;;;22.81;41.30
56400;BME280;42298;53.638;9.876;2023-05-20T07:25:21;102492.94;;;22.58;40.82
56400;BME280;42298;53.638;9.876;2023-05-20T07:27:46;102510.75;;;22.41;41.57
56400;BME280;42298;53.638;9.876;2023-05-20T07:30:12;102514.13;;;22.35;42.01
56400;BME280;42298;53.638;9.876;2023-05-20T07:32:38;102503.28;;;22.45;42.33
56400;BME280;42298;53.638;9.876;2023-05-20T07:35:04;102496.19;;;22.60;42.24
56400;BME280;42298;53.638;9.876;2023-05-20T07:37:29;102494.75;;;22.42;41.58
56400;BME280;42298;53.638;9.876;2023-05-20T07:39:55;102499.50;;;22.29;41.46
56400;BME280;42298;53.638;9.876;2023-05-20T07:42:20;102497.78;;;22.49;42.48
56400;BME280;42298;53.638;9.876;2023-05-20T07:44:45;102499.00;;;22.60;42.00
56400;BME280;42298;53.638;9.876;2023-05-20T07:47:12;102491.66;;;22.56;41.96
56400;BME280;42298;53.638;9.876;2023-05-20T07:49:37;102500.97;;;22.15;42.53
56400;BME280;42298;53.638;9.876;2023-05-20T07:52:05;102502.47;;;22.12;42.36
56400;BME280;42298;53.638;9.876;2023-05-20T07:54:31;102496.84;;;22.12;42.39
56400;BME280;42298;53.638;9.876;2023-05-20T07:56:56;102487.50;;;22.08;42.65
56400;BME280;42298;53.638;9.876;2023-05-20T07:59:22;102486.28;;;22.30;42.02
56400;BME280;42298;53.638;9.876;2023-05-20T08:01:48;102494.16;;;22.48;41.81
56400;BME280;42298;53.638;9.876;2023-05-20T08:04:14;102496.94;;;22.36;41.83
56400;BME280;42298;53.638;9.876;2023-05-20T08:06:39;102493.03;;;22.29;40.73
56400;BME280;42298;53.638;9.876;2023-05-20T08:09:06;102499.97;;;21.99;41.30
56400;BME280;42298;53.638;9.876;2023-05-20T08:11:33;102487.28;;;21.72;42.45
56400;BME280;42298;53.638;9.876;2023-05-20T08:13:58;102502.84;;;21.70;42.75
56400;BME280;42298;53.638;9.876;2023-05-20T08:16:23;102496.16;;;21.83;42.34
56400;BME280;42298;53.638;9.876;2023-05-20T08:18:49;102494.63;;;22.06;42.01
56400;BME280;42298;53.638;9.876;2023-05-20T08:21:14;102488.75;;;21.78;42.30
56400;BME280;42298;53.638;9.876;2023-05-20T08:23:41;102486.38;;;21.48;43.43
56400;BME280;42298;53.638;9.876;2023-05-20T08:26:06;102493.41;;;21.54;43.26
56400;BME280;42298;53.638;9.876;2023-05-20T08:28:32;102485.81;;;21.75;42.21
56400;BME280;42298;53.638;9.876;2023-05-20T08:30:57;102481.28;;;22.03;42.84
56400;BME280;42298;53.638;9.876;2023-05-20T08:33:25;102470.47;;;21.93;41.85
56400;BME280;42298;53.638;9.876;2023-05-20T08:35:51;102474.44;;;22.24;43.44
56400;BME280;42298;53.638;9.876;2023-05-20T08:38:16;102468.75;;;22.33;43.09
56400;BME280;42298;53.638;9.876;2023-05-20T08:40:42;102478.09;;;22.37;42.72
56400;BME280;42298;53.638;9.876;2023-05-20T08:43:08;102468.25;;;22.31;42.85
56400;BME280;42298;53.638;9.876;2023-05-20T08:45:36;102461.13;;;22.33;43.53
56400;BME280;42298;53.638;9.876;2023-05-20T08:48:02;102473.69;;;22.48;42.84
56400;BME280;42298;53.638;9.876;2023-05-20T08:50:29;102463.78;;;22.50;42.20
56400;BME280;42298;53.638;9.876;2023-05-20T08:52:54;102460.63;;;22.52;40.69
56400;BME280;42298;53.638;9.876;2023-05-20T08:55:34;102461.06;;;22.66;40.25
56400;BME280;42298;53.638;9.876;2023-05-20T08:58:02;102468.47;;;22.59;41.08
56400;BME280;42298;53.638;9.876;2023-05-20T09:00:27;102454.78;;;22.57;40.75
56400;BME280;42298;53.638;9.876;2023-05-20T09:02:54;102456.75;;;22.57;39.12
56400;BME280;42298;53.638;9.876;2023-05-20T09:05:19;102463.91;;;22.21;38.35
56400;BME280;42298;53.638;9.876;2023-05-20T09:07:46;102448.72;;;22.22;38.72
56400;BME280;42298;53.638;9.876;2023-05-20T09:10:11;102450.75;;;22.46;38.64
56400;BME280;42298;53.638;9.876;2023-05-20T09:12:38;102456.44;;;22.25;38.06
56400;BME280;42298;53.638;9.876;2023-05-20T09:15:05;102457.50;;;22.21;38.00
56400;BME280;42298;53.638;9.876;2023-05-20T09:17:34;102444.72;;;22.23;38.53
56400;BME280;42298;53.638;9.876;2023-05-20T09:19:59;102451.09;;;22.44;38.62
56400;BME280;42298;53.638;9.876;2023-05-20T09:22:27;102446.81;;;22.83;38.20
56400;BME280;42298;53.638;9.876;2023-05-20T09:24:52;102451.94;;;23.29;37.14
56400;BME280;42298;53.638;9.876;2023-05-20T09:27:22;102451.72;;;23.10;36.83
56400;BME280;42298;53.638;9.876;2023-05-20T09:29:49;102448.09;;;22.98;37.25
56400;BME280;42298;53.638;9.876;2023-05-20T09:32:15;102451.59;;;23.07;37.13
56400;BME280;42298;53.638;9.876;2023-05-20T09:34:41;102464.94;;;22.98;36.66
56400;BME280;42298;53.638;9.876;2023-05-20T09:37:08;102445.19;;;22.58;37.32
56400;BME280;42298;53.638;9.876;2023-05-20T09:39:42;102427.63;;;22.61;37.52
56400;BME280;42298;53.638;9.876;2023-05-20T09:42:26;102423.00;;;22.44;37.46
56400;BME280;42298;53.638;9.876;2023-05-20T09:44:54;102431.00;;;22.79;37.25
56400;BME280;42298;53.638;9.876;2023-05-20T09:47:19;102411.91;;;22.36;37.13
56400;BME280;42298;53.638;9.876;2023-05-20T09:49:45;102423.34;;;22.31;38.15
56400;BME280;42298;53.638;9.876;2023-05-20T09:52:17;102430.72;;;22.35;37.42
56400;BME280;42298;53.638;9.876;2023-05-20T09:54:43;102422.28;;;21.79;38.19
56400;BME280;42298;53.638;9.876;2023-05-20T09:57:08;102418.34;;;21.71;38.77
56400;BME280;42298;53.638;9.876;2023-05-20T09:59:36;102430.06;;;21.53;38.90
56400;BME280;42298;53.638;9.876;2023-05-20T10:02:01;102422.94;;;21.35;38.86
56400;BME280;42298;53.638;9.876;2023-05-20T10:04:27;102429.31;;;21.23;39.05
56400;BME280;42298;53.638;9.876;2023-05-20T10:10:02;102420.00;;;21.11;40.18
56400;BME280;42298;53.638;9.876;2023-05-20T10:12:49;102416.75;;;21.29;40.21
56400;BME280;42298;53.638;9.876;2023-05-20T10:15:28;102414.66;;;20.97;40.49
56400;BME280;42298;53.638;9.876;2023-05-20T10:20:45;102414.94;;;20.37;42.51
56400;BME280;42298;53.638;9.876;2023-05-20T10:23:20;102412.13;;;20.37;42.91
56400;BME280;42298;53.638;9.876;2023-05-20T10:25:54;102425.16;;;20.33;42.78
56400;BME280;42298;53.638;9.876;2023-05-20T10:28:30;102417.28;;;20.35;42.82
56400;BME280;42298;53.638;9.876;2023-05-20T10:30:56;102406.13;;;20.18;43.05
56400;BME280;42298;53.638;9.876;2023-05-20T10:33:22;102402.50;;;20.18;43.07
56400;BME280;42298;53.638;9.876;2023-05-20T10:35:50;102390.75;;;20.33;42.15
56400;BME280;42298;53.638;9.876;2023-05-20T10:38:16;102386.94;;;20.37;42.06
56400;BME280;42298;53.638;9.876;2023-05-20T10:40:42;102395.50;;;20.41;41.84
56400;BME280;42298;53.638;9.876;2023-05-20T10:43:09;102386.38;;;20.52;41.99
56400;BME280;42298;53.638;9.876;2023-05-20T10:45:46;102375.78;;;20.96;41.66
56400;BME280;42298;53.638;9.876;2023-05-20T10:48:22;102374.28;;;21.19;41.29
56400;BME280;42298;53.638;9.876;2023-05-20T10:50:49;102376.25;;;21.18;41.07
56400;BME280;42298;53.638;9.876;2023-05-20T10:53:14;102378.66;;;21.08;41.56
56400;BME280;42298;53.638;9.876;2023-05-20T10:55:47;102372.16;;;20.66;42.77
56400;BME280;42298;53.638;9.876;2023-05-20T10:58:16;102381.00;;;20.47;44.08
56400;BME280;42298;53.638;9.876;2023-05-20T11:00:44;102388.66;;;20.21;44.70
56400;BME280;42298;53.638;9.876;2023-05-20T11:03:12;102367.38;;;19.83;45.15
56400;BME280;42298;53.638;9.876;2023-05-20T11:05:38;102392.88;;;19.81;45.85
56400;BME280;42298;53.638;9.876;2023-05-20T11:08:06;102374.31;;;19.77;46.44
56400;BME280;42298;53.638;9.876;2023-05-20T11:10:33;102370.56;;;20.10;46.14
56400;BME280;42298;53.638;9.876;2023-05-20T11:13:02;102374.47;;;20.35;45.86
56400;BME280;42298;53.638;9.876;2023-05-20T11:15:28;102354.44;;;20.07;45.39
56400;BME280;42298;53.638;9.876;2023-05-20T11:17:59;102369.81;;;19.93;45.24
56400;BME280;42298;53.638;9.876;2023-05-20T11:20:25;102371.97;;;19.87;46.50
56400;BME280;42298;53.638;9.876;2023-05-20T11:22:54;102370.31;;;19.95;46.31
56400;BME280;42298;53.638;9.876;2023-05-20T11:25:24;102368.97;;;20.01;46.56
56400;BME280;42298;53.638;9.876;2023-05-20T11:27:50;102372.56;;;20.01;46.57
56400;BME280;42298;53.638;9.876;2023-05-20T11:30:20;102366.00;;;19.97;46.70
56400;BME280;42298;53.638;9.876;2023-05-20T11:33:02;102363.38;;;19.92;46.58
56400;BME280;42298;53.638;9.876;2023-05-20T11:35:30;102361.38;;;20.01;46.58
56400;BME280;42298;53.638;9.876;2023-05-20T11:38:00;102350.19;;;20.01;46.71
56400;BME280;42298;53.638;9.876;2023-05-20T11:40:30;102349.84;;;20.20;46.69
56400;BME280;42298;53.638;9.876;2023-05-20T11:42:57;102345.69;;;20.26;46.69
56400;BME280;42298;53.638;9.876;2023-05-20T11:45:23;102338.97;;;20.18;45.85
56400;BME280;42298;53.638;9.876;2023-05-20T11:48:02;102357.25;;;20.07;46.89
56400;BME280;42298;53.638;9.876;2023-05-20T11:50:35;102346.59;;;20.01;47.08
56400;BME280;42298;53.638;9.876;2023-05-20T11:53:04;102352.56;;;19.82;47.61
56400;BME280;42298;53.638;9.876;2023-05-20T11:55:31;102347.94;;;19.86;47.64
56400;BME280;42298;53.638;9.876;2023-05-20T11:58:00;102345.47;;;19.85;48.05
56400;BME280;42298;53.638;9.876;2023-05-20T12:00:28;102342.06;;;19.62;47.94
56400;BME280;42298;53.638;9.876;2023-05-20T12:02:55;102343.88;;;19.67;48.69
56400;BME280;42298;53.638;9.876;2023-05-20T12:05:20;102343.06;;;19.66;48.29
56400;BME280;42298;53.638;9.876;2023-05-20T12:07:51;102342.72;;;19.76;47.75
56400;BME280;42298;53.638;9.876;2023-05-20T12:10:16;102340.94;;;19.63;48.03
56400;BME280;42298;53.638;9.876;2023-05-20T12:12:43;102343.41;;;19.56;48.34
56400;BME280;42298;53.638;9.876;2023-05-20T12:15:09;102347.69;;;19.54;48.72
56400;BME280;42298;53.638;9.876;2023-05-20T12:17:47;102353.47;;;19.49;48.76
56400;BME280;42298;53.638;9.876;2023-05-20T12:20:14;102362.69;;;19.32;48.93
56400;BME280;42298;53.638;9.876;2023-05-20T12:22:41;102346.06;;;19.19;49.50
56400;BME280;42298;53.638;9.876;2023-05-20T12:25:10;102358.56;;;19.38;48.96
56400;BME280;42298;53.638;9.876;2023-05-20T12:27:37;102343.91;;;19.24;49.35
56400;BME280;42298;53.638;9.876;2023-05-20T12:30:03;102336.84;;;19.18;49.40
56400;BME280;42298;53.638;9.876;2023-05-20T12:32:28;102339.13;;;19.16;49.71
56400;BME280;42298;53.638;9.876;2023-05-20T12:34:54;102333.56;;;19.16;49.82
56400;BME280;42298;53.638;9.876;2023-05-20T12:37:21;102334.72;;;19.15;50.19
56400;BME280;42298;53.638;9.876;2023-05-20T12:39:47;102333.59;;;19.33;49.93
56400;BME280;42298;53.638;9.876;2023-05-20T12:42:13;102331.56;;;19.25;50.11
56400;BME280;42298;53.638;9.876;2023-05-20T12:44:38;102325.03;;;19.30;50.05
56400;BME280;42298;53.638;9.876;2023-05-20T12:47:04;102321.44;;;19.29;49.92
56400;BME280;42298;53.638;9.876;2023-05-20T12:49:29;102321.22;;;19.26;50.30
56400;BME280;42298;53.638;9.876;2023-05-20T12:51:55;102322.56;;;19.45;49.67
56400;BME280;42298;53.638;9.876;2023-05-20T12:54:20;102320.25;;;19.47;49.21
56400;BME280;42298;53.638;9.876;2023-05-20T12:56:45;102317.44;;;19.56;49.47